Cheboygan, MI (49721)

7:21 AM EST on March 06, 2015 (GMT -0500)
Wildcat North | Change Station
CLOSE
Current Station
Personal Weather Station
Location: Cheboygan, MI
Elevation: 640 ft
Nearby Weather Stations

Elev 640 ft 45.58 °N, 84.46 °W | Updated 3 seconds ago

Partly Cloudy
Partly Cloudy
3.2 °F
Feels Like 3 °F
N
3.0
Wind Variable Wind from SSW
Gusts 5.0 mph

Today
High -- | Low -- °F
--% Chance of Precip.
Yesterday
High -- | Low -- °F
Precip. -- in
7:07 AM 6:31 PM
Waxing Gibbous, 99% visible
Pressure 30.25 in
Visibility 10.0 miles
Clouds Clear
Windchill 3 °F
Dew Point 0 °F
Humidity 87%
Rainfall in
Snow Depth Not available.
UV 0.0 out of 12
Pollen .40 out of 12
Air Quality Not available.
Flu Activity Not available.
METAR KSLH 061218Z AUTO 18004KT 10SM CLR M15/M17 A3025 RMK AO2 T11521180

More Conditions Fewer Conditions

Pressure 30.25 in
Visibility 10.0 miles
Clouds Clear
Windchill 3 °F
Dew Point 0 °F
Humidity 87%
Rainfall in
Snow Depth Not available.
UV 0.0 out of 12
Pollen .40 out of 12
Air Quality Not available.
Flu Activity Not available.
METAR KSLH 061218Z AUTO 18004KT 10SM CLR M15/M17 A3025 RMK AO2 T11521180

More Conditions Fewer Conditions

Nowcast | as of 7:00 am EST on March 6, 2015

At 8 am...clear. Temperature 10 above. Southwest winds 10 mph. Wind chill 5 below. At 10 am...mostly clear. Temperature 16. Southwest winds 13 mph. At 12 PM...partly cloudy. Temperature 21. Southwest winds 18 mph with gusts to 30 mph. At 2 PM...partly cloudy. Temperature 25. Southwest winds 21 mph.

×

10-Day Weather Forecast

Almanac

Astronomy

Mar. 06, 2015 Rise Set
Actual Time
Civil Twilight
Nautical Twilight
Astronomical Twilight
Moon
Length of Visible Light
Length of Day
Tomorrow will be .
, % of the Moon is Illuminated

Today's Extremes

State Highs State Lows

Community

WunderPhotos

Upload Photos

1,803,242 photos uploaded!

WunderBlogs® & News

Nearby

Air Quality

  Air Quality AQ Index Pollutant
Not available.

Snow Depth

Station Depth Elevation

Earthquake Activity

City Distance Mag. Time & Date
Minimum magnitude displayed is 2.5.

Coastal Water Temperatures

Place Temperature

Nearby Weather Stations